CheckWX is a tool to help pilots better visualize weather data.  It is not intended as a substitute for an official pre-flight weather briefing.

19:18:15 UTC

HTZA METAR
Abeid Amani Karume International Airport
Zanzibar, Tanzania
Current

3 hours ago

HTZA 261600Z 12005KT 9999 SCT012 BKN080 26/24 Q1013 NOSIG
Observed
May-26 @ 16:00 UTC
Wind
  • 120° at 5 KTS
Visibility
10,000+ meters
Flight Rules
VFR
Cloud Levels
  • Scattered at 1,200' AGL
  • Broken at 8,000' AGL
Temperature
26°C / 79°F
Dewpoint
24°C / 75°F
Humidity
89%
Altimeter
29.91" Hg
Pressure
1012.92 hPa
Previous

4 hours ago

HTZA 261500Z 11005KT 9999 SCT012 BKN080 26/24 Q1013 NOSIG
Observed
May-26 @ 15:00 UTC
Wind
  • 110° at 5 KTS
Visibility
10,000+ meters
Flight Rules
VFR
Cloud Levels
  • Scattered at 1,200' AGL
  • Broken at 8,000' AGL
Temperature
26°C / 79°F
Dewpoint
24°C / 75°F
Humidity
89%
Altimeter
29.91" Hg
Pressure
1012.92 hPa
Previous

5 hours ago

HTZA 261400Z 10005KT 9999 SCT012 BKN080 27/23 Q1012 NOSIG
Observed
May-26 @ 14:00 UTC
Wind
  • 100° at 5 KTS
Visibility
10,000+ meters
Flight Rules
VFR
Cloud Levels
  • Scattered at 1,200' AGL
  • Broken at 8,000' AGL
Temperature
27°C / 81°F
Dewpoint
23°C / 73°F
Heat Index
30°C / 86°F
Humidity
79%
Altimeter
29.88" Hg
Pressure
1011.92 hPa